sensor_id;sensor_type;location;lat;lon;timestamp;temperature;humidity
48551;DHT22;34397;51.176;6.738;2024-02-04T00:00:50;9.10;93.30
48551;DHT22;34397;51.176;6.738;2024-02-04T00:03:22;9.00;93.40
48551;DHT22;34397;51.176;6.738;2024-02-04T00:05:54;9.00;93.40
48551;DHT22;34397;51.176;6.738;2024-02-04T00:08:26;9.10;93.40
48551;DHT22;34397;51.176;6.738;2024-02-04T00:10:58;9.00;93.40
48551;DHT22;34397;51.176;6.738;2024-02-04T00:13:31;9.10;93.40
48551;DHT22;34397;51.176;6.738;2024-02-04T00:16:03;9.10;93.40
48551;DHT22;34397;51.176;6.738;2024-02-04T00:18:36;9.10;93.30
48551;DHT22;34397;51.176;6.738;2024-02-04T00:21:07;9.10;93.30
48551;DHT22;34397;51.176;6.738;2024-02-04T00:23:39;9.10;93.30
48551;DHT22;34397;51.176;6.738;2024-02-04T00:26:11;9.20;93.30
48551;DHT22;34397;51.176;6.738;2024-02-04T00:28:44;9.20;93.30
48551;DHT22;34397;51.176;6.738;2024-02-04T00:31:16;9.20;93.30
48551;DHT22;34397;51.176;6.738;2024-02-04T00:33:48;9.20;93.30
48551;DHT22;34397;51.176;6.738;2024-02-04T00:36:20;9.10;93.40
48551;DHT22;34397;51.176;6.738;2024-02-04T00:38:52;9.10;93.40
48551;DHT22;34397;51.176;6.738;2024-02-04T00:41:24;9.10;93.50
48551;DHT22;34397;51.176;6.738;2024-02-04T00:43:59;9.10;93.50
48551;DHT22;34397;51.176;6.738;2024-02-04T00:46:31;9.10;93.50
48551;DHT22;34397;51.176;6.738;2024-02-04T00:49:03;9.10;93.50
48551;DHT22;34397;51.176;6.738;2024-02-04T00:51:34;9.10;93.60
48551;DHT22;34397;51.176;6.738;2024-02-04T00:54:06;9.10;93.60
48551;DHT22;34397;51.176;6.738;2024-02-04T00:56:38;9.10;93.70
48551;DHT22;34397;51.176;6.738;2024-02-04T00:59:12;9.00;93.70
48551;DHT22;34397;51.176;6.738;2024-02-04T01:01:43;9.00;93.70
48551;DHT22;34397;51.176;6.738;2024-02-04T01:04:15;9.00;93.80
48551;DHT22;34397;51.176;6.738;2024-02-04T01:06:47;9.00;93.80
48551;DHT22;34397;51.176;6.738;2024-02-04T01:09:19;9.00;93.90
48551;DHT22;34397;51.176;6.738;2024-02-04T01:11:51;9.00;94.00
48551;DHT22;34397;51.176;6.738;2024-02-04T01:14:25;9.00;94.00
48551;DHT22;34397;51.176;6.738;2024-02-04T01:16:56;9.00;94.10
48551;DHT22;34397;51.176;6.738;2024-02-04T01:19:28;9.00;94.20
48551;DHT22;34397;51.176;6.738;2024-02-04T01:22:00;9.00;94.00
48551;DHT22;34397;51.176;6.738;2024-02-04T01:24:32;9.00;94.10
48551;DHT22;34397;51.176;6.738;2024-02-04T01:27:04;9.00;94.10
48551;DHT22;34397;51.176;6.738;2024-02-04T01:29:37;9.00;94.10
48551;DHT22;34397;51.176;6.738;2024-02-04T01:32:09;9.00;94.20
48551;DHT22;34397;51.176;6.738;2024-02-04T01:34:41;9.00;94.20
48551;DHT22;34397;51.176;6.738;2024-02-04T01:37:13;9.00;94.20
48551;DHT22;34397;51.176;6.738;2024-02-04T01:39:44;9.00;94.20
48551;DHT22;34397;51.176;6.738;2024-02-04T01:42:16;9.00;94.20
48551;DHT22;34397;51.176;6.738;2024-02-04T01:44:49;8.90;94.30
48551;DHT22;34397;51.176;6.738;2024-02-04T01:47:21;9.00;94.30
48551;DHT22;34397;51.176;6.738;2024-02-04T01:49:53;8.90;94.30
48551;DHT22;34397;51.176;6.738;2024-02-04T01:52:26;9.00;94.40
48551;DHT22;34397;51.176;6.738;2024-02-04T01:54:59;8.90;94.50
48551;DHT22;34397;51.176;6.738;2024-02-04T01:57:32;8.90;94.40
48551;DHT22;34397;51.176;6.738;2024-02-04T02:00:08;8.90;94.50
48551;DHT22;34397;51.176;6.738;2024-02-04T02:02:41;8.90;94.60
48551;DHT22;34397;51.176;6.738;2024-02-04T02:05:13;8.90;94.60
48551;DHT22;34397;51.176;6.738;2024-02-04T02:07:45;8.90;94.70
48551;DHT22;34397;51.176;6.738;2024-02-04T02:10:21;8.90;94.70
48551;DHT22;34397;51.176;6.738;2024-02-04T02:12:58;8.90;94.80
48551;DHT22;34397;51.176;6.738;2024-02-04T02:15:38;8.80;94.90
48551;DHT22;34397;51.176;6.738;2024-02-04T02:18:15;8.90;94.90
48551;DHT22;34397;51.176;6.738;2024-02-04T02:21:02;8.90;94.90
48551;DHT22;34397;51.176;6.738;2024-02-04T02:24:04;8.90;94.90
48551;DHT22;34397;51.176;6.738;2024-02-04T02:26:43;8.90;95.10
48551;DHT22;34397;51.176;6.738;2024-02-04T02:29:16;8.90;94.90
48551;DHT22;34397;51.176;6.738;2024-02-04T02:31:47;8.90;94.90
48551;DHT22;34397;51.176;6.738;2024-02-04T02:34:19;8.90;94.90
48551;DHT22;34397;51.176;6.738;2024-02-04T02:36:57;9.00;94.90
48551;DHT22;34397;51.176;6.738;2024-02-04T02:39:36;9.00;94.90
48551;DHT22;34397;51.176;6.738;2024-02-04T02:42:12;9.00;94.90
48551;DHT22;34397;51.176;6.738;2024-02-04T02:44:45;9.00;94.90
48551;DHT22;34397;51.176;6.738;2024-02-04T02:47:18;9.00;94.90
48551;DHT22;34397;51.176;6.738;2024-02-04T02:49:51;9.00;95.00
48551;DHT22;34397;51.176;6.738;2024-02-04T02:52:25;8.90;95.00
48551;DHT22;34397;51.176;6.738;2024-02-04T02:54:56;8.90;95.00
48551;DHT22;34397;51.176;6.738;2024-02-04T02:57:30;8.90;95.10
48551;DHT22;34397;51.176;6.738;2024-02-04T03:00:02;8.90;95.10
48551;DHT22;34397;51.176;6.738;2024-02-04T03:02:36;8.90;95.10
48551;DHT22;34397;51.176;6.738;2024-02-04T03:05:08;9.00;95.10
48551;DHT22;34397;51.176;6.738;2024-02-04T03:07:42;9.00;95.10
48551;DHT22;34397;51.176;6.738;2024-02-04T03:10:14;9.00;95.00
48551;DHT22;34397;51.176;6.738;2024-02-04T03:12:47;9.10;94.90
48551;DHT22;34397;51.176;6.738;2024-02-04T03:15:19;9.10;94.90
48551;DHT22;34397;51.176;6.738;2024-02-04T03:17:50;9.10;94.90
48551;DHT22;34397;51.176;6.738;2024-02-04T03:20:22;9.10;94.90
48551;DHT22;34397;51.176;6.738;2024-02-04T03:22:55;9.10;94.80
48551;DHT22;34397;51.176;6.738;2024-02-04T03:25:27;9.10;94.80
48551;DHT22;34397;51.176;6.738;2024-02-04T03:28:00;9.10;95.00
48551;DHT22;34397;51.176;6.738;2024-02-04T03:30:33;9.10;94.80
48551;DHT22;34397;51.176;6.738;2024-02-04T03:33:05;9.10;94.80
48551;DHT22;34397;51.176;6.738;2024-02-04T03:35:38;9.10;94.80
48551;DHT22;34397;51.176;6.738;2024-02-04T03:38:09;9.10;94.80
48551;DHT22;34397;51.176;6.738;2024-02-04T03:40:41;9.10;94.80
48551;DHT22;34397;51.176;6.738;2024-02-04T03:43:14;9.10;94.90
48551;DHT22;34397;51.176;6.738;2024-02-04T03:45:46;9.10;94.90
48551;DHT22;34397;51.176;6.738;2024-02-04T03:48:18;9.10;94.90
48551;DHT22;34397;51.176;6.738;2024-02-04T03:50:50;9.00;95.00
48551;DHT22;34397;51.176;6.738;2024-02-04T03:53:22;9.00;95.00
48551;DHT22;34397;51.176;6.738;2024-02-04T03:55:55;9.00;95.10
48551;DHT22;34397;51.176;6.738;2024-02-04T03:58:28;9.00;95.10
48551;DHT22;34397;51.176;6.738;2024-02-04T04:01:00;9.00;95.00
48551;DHT22;34397;51.176;6.738;2024-02-04T04:03:32;9.00;94.90
48551;DHT22;34397;51.176;6.738;2024-02-04T04:06:04;9.00;94.90
48551;DHT22;34397;51.176;6.738;2024-02-04T04:08:37;9.00;94.90
48551;DHT22;34397;51.176;6.738;2024-02-04T04:11:09;9.00;94.90
48551;DHT22;34397;51.176;6.738;2024-02-04T04:13:43;9.00;94.90
48551;DHT22;34397;51.176;6.738;2024-02-04T04:16:14;9.10;94.70
48551;DHT22;34397;51.176;6.738;2024-02-04T04:18:46;9.10;94.70
48551;DHT22;34397;51.176;6.738;2024-02-04T04:21:18;9.20;94.70
48551;DHT22;34397;51.176;6.738;2024-02-04T04:23:50;9.20;94.50
48551;DHT22;34397;51.176;6.738;2024-02-04T04:26:22;9.20;94.50
48551;DHT22;34397;51.176;6.738;2024-02-04T04:28:56;9.20;94.40
48551;DHT22;34397;51.176;6.738;2024-02-04T04:31:28;9.20;94.40
48551;DHT22;34397;51.176;6.738;2024-02-04T04:33:59;9.20;94.40
48551;DHT22;34397;51.176;6.738;2024-02-04T04:36:31;9.20;94.40
48551;DHT22;34397;51.176;6.738;2024-02-04T04:39:03;9.20;94.30
48551;DHT22;34397;51.176;6.738;2024-02-04T04:41:36;9.20;94.30
48551;DHT22;34397;51.176;6.738;2024-02-04T04:44:09;9.20;94.30
48551;DHT22;34397;51.176;6.738;2024-02-04T04:46:41;9.20;94.40
48551;DHT22;34397;51.176;6.738;2024-02-04T04:49:13;9.20;94.20
48551;DHT22;34397;51.176;6.738;2024-02-04T04:51:45;9.20;94.20
48551;DHT22;34397;51.176;6.738;2024-02-04T04:54:17;9.20;94.20
48551;DHT22;34397;51.176;6.738;2024-02-04T04:56:49;9.20;94.20
48551;DHT22;34397;51.176;6.738;2024-02-04T04:59:22;9.20;94.20
48551;DHT22;34397;51.176;6.738;2024-02-04T05:01:54;9.20;94.00
48551;DHT22;34397;51.176;6.738;2024-02-04T05:04:26;9.20;94.00
48551;DHT22;34397;51.176;6.738;2024-02-04T05:06:57;9.20;94.10
48551;DHT22;34397;51.176;6.738;2024-02-04T05:09:29;9.20;94.10
48551;DHT22;34397;51.176;6.738;2024-02-04T05:12:02;9.20;94.00
48551;DHT22;34397;51.176;6.738;2024-02-04T05:14:35;9.20;93.90
48551;DHT22;34397;51.176;6.738;2024-02-04T05:17:07;9.30;93.80
48551;DHT22;34397;51.176;6.738;2024-02-04T05:19:41;9.30;93.70
48551;DHT22;34397;51.176;6.738;2024-02-04T05:22:13;9.20;93.60
48551;DHT22;34397;51.176;6.738;2024-02-04T05:24:44;9.20;93.60
48551;DHT22;34397;51.176;6.738;2024-02-04T05:27:16;9.20;93.60
48551;DHT22;34397;51.176;6.738;2024-02-04T05:29:49;9.20;93.60
48551;DHT22;34397;51.176;6.738;2024-02-04T05:32:21;9.20;93.50
48551;DHT22;34397;51.176;6.738;2024-02-04T05:34:53;9.20;93.50
48551;DHT22;34397;51.176;6.738;2024-02-04T05:37:26;9.20;93.50
48551;DHT22;34397;51.176;6.738;2024-02-04T05:39:58;9.30;93.50
48551;DHT22;34397;51.176;6.738;2024-02-04T05:42:30;9.30;93.50
48551;DHT22;34397;51.176;6.738;2024-02-04T05:45:04;9.30;93.50
48551;DHT22;34397;51.176;6.738;2024-02-04T05:47:37;9.30;93.40
48551;DHT22;34397;51.176;6.738;2024-02-04T05:50:09;9.30;93.40
48551;DHT22;34397;51.176;6.738;2024-02-04T05:52:41;9.40;93.50
48551;DHT22;34397;51.176;6.738;2024-02-04T05:55:13;9.40;93.60
48551;DHT22;34397;51.176;6.738;2024-02-04T05:57:45;9.40;93.30
48551;DHT22;34397;51.176;6.738;2024-02-04T06:00:18;9.40;93.40
48551;DHT22;34397;51.176;6.738;2024-02-04T06:02:50;9.40;93.40
48551;DHT22;34397;51.176;6.738;2024-02-04T06:05:22;9.40;93.30
48551;DHT22;34397;51.176;6.738;2024-02-04T06:07:54;9.40;93.30
48551;DHT22;34397;51.176;6.738;2024-02-04T06:10:26;9.40;93.30
48551;DHT22;34397;51.176;6.738;2024-02-04T06:12:58;9.40;93.30
48551;DHT22;34397;51.176;6.738;2024-02-04T06:15:31;9.40;93.30
48551;DHT22;34397;51.176;6.738;2024-02-04T06:18:03;9.40;93.30
48551;DHT22;34397;51.176;6.738;2024-02-04T06:20:35;9.40;93.30
48551;DHT22;34397;51.176;6.738;2024-02-04T06:23:07;9.40;93.40
48551;DHT22;34397;51.176;6.738;2024-02-04T06:25:39;9.40;93.30
48551;DHT22;34397;51.176;6.738;2024-02-04T06:28:10;9.40;93.30
48551;DHT22;34397;51.176;6.738;2024-02-04T06:30:44;9.40;93.50
48551;DHT22;34397;51.176;6.738;2024-02-04T06:33:16;9.40;93.20
48551;DHT22;34397;51.176;6.738;2024-02-04T06:35:47;9.50;93.20
48551;DHT22;34397;51.176;6.738;2024-02-04T06:38:19;9.50;93.20
48551;DHT22;34397;51.176;6.738;2024-02-04T06:40:51;9.50;93.20
48551;DHT22;34397;51.176;6.738;2024-02-04T06:43:23;9.50;93.20
48551;DHT22;34397;51.176;6.738;2024-02-04T06:45:56;9.50;93.10
48551;DHT22;34397;51.176;6.738;2024-02-04T06:48:28;9.50;93.20
48551;DHT22;34397;51.176;6.738;2024-02-04T06:51:00;9.50;93.20
48551;DHT22;34397;51.176;6.738;2024-02-04T06:53:32;9.50;93.30
48551;DHT22;34397;51.176;6.738;2024-02-04T06:56:04;9.50;93.30
48551;DHT22;34397;51.176;6.738;2024-02-04T06:58:37;9.50;93.40
48551;DHT22;34397;51.176;6.738;2024-02-04T07:01:11;9.50;93.40
48551;DHT22;34397;51.176;6.738;2024-02-04T07:03:43;9.40;93.40
48551;DHT22;34397;51.176;6.738;2024-02-04T07:06:15;9.40;93.50
48551;DHT22;34397;51.176;6.738;2024-02-04T07:08:47;9.40;93.50
48551;DHT22;34397;51.176;6.738;2024-02-04T07:11:19;9.40;93.60
48551;DHT22;34397;51.176;6.738;2024-02-04T07:13:50;9.40;93.60
48551;DHT22;34397;51.176;6.738;2024-02-04T07:16:30;9.40;93.70
48551;DHT22;34397;51.176;6.738;2024-02-04T07:19:01;9.40;93.80
48551;DHT22;34397;51.176;6.738;2024-02-04T07:21:34;9.30;93.90
48551;DHT22;34397;51.176;6.738;2024-02-04T07:24:06;9.30;93.90
48551;DHT22;34397;51.176;6.738;2024-02-04T07:26:38;9.30;94.00
48551;DHT22;34397;51.176;6.738;2024-02-04T07:29:10;9.30;94.10
48551;DHT22;34397;51.176;6.738;2024-02-04T07:31:43;9.30;94.10
48551;DHT22;34397;51.176;6.738;2024-02-04T07:34:15;9.30;94.20
48551;DHT22;34397;51.176;6.738;2024-02-04T07:36:47;9.30;94.20
48551;DHT22;34397;51.176;6.738;2024-02-04T07:39:19;9.30;94.30
48551;DHT22;34397;51.176;6.738;2024-02-04T07:41:50;9.20;94.40
48551;DHT22;34397;51.176;6.738;2024-02-04T07:44:24;9.30;94.40
48551;DHT22;34397;51.176;6.738;2024-02-04T07:46:57;9.20;94.40
48551;DHT22;34397;51.176;6.738;2024-02-04T07:49:29;9.20;94.50
48551;DHT22;34397;51.176;6.738;2024-02-04T07:52:01;9.20;94.50
48551;DHT22;34397;51.176;6.738;2024-02-04T07:54:33;9.20;94.60
48551;DHT22;34397;51.176;6.738;2024-02-04T07:57:04;9.20;94.60
48551;DHT22;34397;51.176;6.738;2024-02-04T07:59:36;9.20;94.60
48551;DHT22;34397;51.176;6.738;2024-02-04T08:02:09;9.20;94.50
48551;DHT22;34397;51.176;6.738;2024-02-04T08:04:41;9.20;94.50
48551;DHT22;34397;51.176;6.738;2024-02-04T08:07:13;9.20;94.50
48551;DHT22;34397;51.176;6.738;2024-02-04T08:09:47;9.20;94.60
48551;DHT22;34397;51.176;6.738;2024-02-04T08:12:21;9.20;94.60
48551;DHT22;34397;51.176;6.738;2024-02-04T08:14:53;9.20;94.60
48551;DHT22;34397;51.176;6.738;2024-02-04T08:17:26;9.20;94.60
48551;DHT22;34397;51.176;6.738;2024-02-04T08:20:01;9.30;94.60
48551;DHT22;34397;51.176;6.738;2024-02-04T08:22:34;9.20;94.50
48551;DHT22;34397;51.176;6.738;2024-02-04T08:25:06;9.20;94.60
48551;DHT22;34397;51.176;6.738;2024-02-04T08:27:40;9.20;94.70
48551;DHT22;34397;51.176;6.738;2024-02-04T08:30:13;9.20;94.70
48551;DHT22;34397;51.176;6.738;2024-02-04T08:32:46;9.20;94.70
48551;DHT22;34397;51.176;6.738;2024-02-04T08:35:18;9.20;94.80
48551;DHT22;34397;51.176;6.738;2024-02-04T08:37:50;9.20;94.80
48551;DHT22;34397;51.176;6.738;2024-02-04T08:40:22;9.20;94.80
48551;DHT22;34397;51.176;6.738;2024-02-04T08:42:53;9.20;94.80
48551;DHT22;34397;51.176;6.738;2024-02-04T08:45:25;9.20;94.80
48551;DHT22;34397;51.176;6.738;2024-02-04T08:47:59;9.20;94.80
48551;DHT22;34397;51.176;6.738;2024-02-04T08:50:30;9.20;94.80
48551;DHT22;34397;51.176;6.738;2024-02-04T08:53:02;9.20;94.90
48551;DHT22;34397;51.176;6.738;2024-02-04T08:55:34;9.20;94.80
48551;DHT22;34397;51.176;6.738;2024-02-04T08:58:06;9.20;94.90
48551;DHT22;34397;51.176;6.738;2024-02-04T09:00:38;9.20;94.80
48551;DHT22;34397;51.176;6.738;2024-02-04T09:03:11;9.20;94.50
48551;DHT22;34397;51.176;6.738;2024-02-04T09:05:44;9.20;94.70
48551;DHT22;34397;51.176;6.738;2024-02-04T09:08:15;9.20;94.60
48551;DHT22;34397;51.176;6.738;2024-02-04T09:10:47;9.20;94.70
48551;DHT22;34397;51.176;6.738;2024-02-04T09:13:19;9.20;94.70
48551;DHT22;34397;51.176;6.738;2024-02-04T09:15:51;9.30;94.70
48551;DHT22;34397;51.176;6.738;2024-02-04T09:18:25;9.30;94.70
48551;DHT22;34397;51.176;6.738;2024-02-04T09:20:57;9.30;94.70
48551;DHT22;34397;51.176;6.738;2024-02-04T09:23:29;9.30;94.80
48551;DHT22;34397;51.176;6.738;2024-02-04T09:26:01;9.30;94.80
48551;DHT22;34397;51.176;6.738;2024-02-04T09:28:32;9.30;94.80
48551;DHT22;34397;51.176;6.738;2024-02-04T09:31:07;9.40;94.80
48551;DHT22;34397;51.176;6.738;2024-02-04T09:33:41;9.40;94.80
48551;DHT22;34397;51.176;6.738;2024-02-04T09:36:12;9.40;94.70
48551;DHT22;34397;51.176;6.738;2024-02-04T09:38:45;9.50;94.50
48551;DHT22;34397;51.176;6.738;2024-02-04T09:41:17;9.50;94.40
48551;DHT22;34397;51.176;6.738;2024-02-04T09:43:49;9.50;94.40
48551;DHT22;34397;51.176;6.738;2024-02-04T09:46:22;9.50;94.40
48551;DHT22;34397;51.176;6.738;2024-02-04T09:48:55;9.50;94.60
48551;DHT22;34397;51.176;6.738;2024-02-04T09:51:28;9.50;94.60
48551;DHT22;34397;51.176;6.738;2024-02-04T09:54:04;9.50;94.50
48551;DHT22;34397;51.176;6.738;2024-02-04T09:56:38;9.50;94.50
48551;DHT22;34397;51.176;6.738;2024-02-04T09:59:11;9.50;94.60
48551;DHT22;34397;51.176;6.738;2024-02-04T10:01:44;9.50;94.50
48551;DHT22;34397;51.176;6.738;2024-02-04T10:04:18;9.50;94.30
48551;DHT22;34397;51.176;6.738;2024-02-04T10:06:50;9.50;94.60
48551;DHT22;34397;51.176;6.738;2024-02-04T10:09:22;9.60;94.70
48551;DHT22;34397;51.176;6.738;2024-02-04T10:11:53;9.60;94.30
48551;DHT22;34397;51.176;6.738;2024-02-04T10:14:25;9.60;94.00
48551;DHT22;34397;51.176;6.738;2024-02-04T10:16:57;9.60;94.20
48551;DHT22;34397;51.176;6.738;2024-02-04T10:19:30;9.70;94.10
48551;DHT22;34397;51.176;6.738;2024-02-04T10:22:03;9.70;94.20
48551;DHT22;34397;51.176;6.738;2024-02-04T10:24:35;9.80;94.30
48551;DHT22;34397;51.176;6.738;2024-02-04T10:27:07;9.80;94.10
48551;DHT22;34397;51.176;6.738;2024-02-04T10:29:41;9.80;93.90
48551;DHT22;34397;51.176;6.738;2024-02-04T10:32:13;9.80;93.90
48551;DHT22;34397;51.176;6.738;2024-02-04T10:34:46;9.80;93.60
48551;DHT22;34397;51.176;6.738;2024-02-04T10:37:19;9.90;93.80
48551;DHT22;34397;51.176;6.738;2024-02-04T10:39:50;9.90;93.80
48551;DHT22;34397;51.176;6.738;2024-02-04T10:42:24;9.90;93.60
48551;DHT22;34397;51.176;6.738;2024-02-04T10:44:58;10.00;93.50
48551;DHT22;34397;51.176;6.738;2024-02-04T10:47:30;10.00;93.40
48551;DHT22;34397;51.176;6.738;2024-02-04T10:50:06;10.00;93.10
48551;DHT22;34397;51.176;6.738;2024-02-04T10:52:39;10.00;93.20
48551;DHT22;34397;51.176;6.738;2024-02-04T10:55:12;10.00;93.20
48551;DHT22;34397;51.176;6.738;2024-02-04T10:57:44;10.00;92.90
48551;DHT22;34397;51.176;6.738;2024-02-04T11:00:18;10.00;93.10
48551;DHT22;34397;51.176;6.738;2024-02-04T11:02:51;10.00;93.40
48551;DHT22;34397;51.176;6.738;2024-02-04T11:05:26;10.00;93.10
48551;DHT22;34397;51.176;6.738;2024-02-04T11:07:59;10.00;92.90
48551;DHT22;34397;51.176;6.738;2024-02-04T11:10:31;10.00;93.10
48551;DHT22;34397;51.176;6.738;2024-02-04T11:13:04;10.00;93.20
48551;DHT22;34397;51.176;6.738;2024-02-04T11:15:37;10.00;93.10
48551;DHT22;34397;51.176;6.738;2024-02-04T11:18:24;10.00;93.30
48551;DHT22;34397;51.176;6.738;2024-02-04T11:21:29;10.00;93.30
48551;DHT22;34397;51.176;6.738;2024-02-04T11:24:22;9.90;93.60
48551;DHT22;34397;51.176;6.738;2024-02-04T11:27:01;9.80;93.60
48551;DHT22;34397;51.176;6.738;2024-02-04T11:29:33;9.80;93.70
48551;DHT22;34397;51.176;6.738;2024-02-04T11:32:06;9.80;93.80
48551;DHT22;34397;51.176;6.738;2024-02-04T11:34:38;9.90;93.70
48551;DHT22;34397;51.176;6.738;2024-02-04T11:37:18;9.80;93.70
48551;DHT22;34397;51.176;6.738;2024-02-04T11:39:51;9.80;94.00
48551;DHT22;34397;51.176;6.738;2024-02-04T11:42:23;9.80;93.80
48551;DHT22;34397;51.176;6.738;2024-02-04T11:45:06;9.80;93.90
48551;DHT22;34397;51.176;6.738;2024-02-04T11:47:40;9.80;93.70
48551;DHT22;34397;51.176;6.738;2024-02-04T11:50:12;9.80;93.90
48551;DHT22;34397;51.176;6.738;2024-02-04T11:52:47;9.80;93.50
48551;DHT22;34397;51.176;6.738;2024-02-04T11:55:19;9.80;93.80
48551;DHT22;34397;51.176;6.738;2024-02-04T11:57:51;9.80;93.70
48551;DHT22;34397;51.176;6.738;2024-02-04T12:00:23;9.80;93.80
48551;DHT22;34397;51.176;6.738;2024-02-04T12:03:01;9.80;93.80
48551;DHT22;34397;51.176;6.738;2024-02-04T12:05:35;9.90;93.80
48551;DHT22;34397;51.176;6.738;2024-02-04T12:08:09;9.90;93.60
48551;DHT22;34397;51.176;6.738;2024-02-04T12:10:43;9.90;93.50
48551;DHT22;34397;51.176;6.738;2024-02-04T12:13:15;9.90;93.70
48551;DHT22;34397;51.176;6.738;2024-02-04T12:15:47;9.90;93.70
48551;DHT22;34397;51.176;6.738;2024-02-04T12:18:19;9.90;93.70
48551;DHT22;34397;51.176;6.738;2024-02-04T12:20:51;9.90;93.60
48551;DHT22;34397;51.176;6.738;2024-02-04T12:23:25;9.90;93.70
48551;DHT22;34397;51.176;6.738;2024-02-04T12:25:58;9.90;93.70
48551;DHT22;34397;51.176;6.738;2024-02-04T12:28:30;9.90;93.60
48551;DHT22;34397;51.176;6.738;2024-02-04T12:31:02;9.90;93.60
48551;DHT22;34397;51.176;6.738;2024-02-04T12:33:34;9.90;93.70
48551;DHT22;34397;51.176;6.738;2024-02-04T12:36:09;9.90;93.80
48551;DHT22;34397;51.176;6.738;2024-02-04T12:38:50;9.90;93.70
48551;DHT22;34397;51.176;6.738;2024-02-04T12:41:24;9.90;94.00
48551;DHT22;34397;51.176;6.738;2024-02-04T12:43:57;9.90;94.10
48551;DHT22;34397;51.176;6.738;2024-02-04T12:46:31;9.90;93.90
48551;DHT22;34397;51.176;6.738;2024-02-04T12:49:03;9.90;93.90
48551;DHT22;34397;51.176;6.738;2024-02-04T12:51:35;9.90;94.00
48551;DHT22;34397;51.176;6.738;2024-02-04T12:54:10;9.80;94.10
48551;DHT22;34397;51.176;6.738;2024-02-04T12:56:45;9.80;94.20
48551;DHT22;34397;51.176;6.738;2024-02-04T12:59:24;9.80;94.20
48551;DHT22;34397;51.176;6.738;2024-02-04T13:01:58;9.80;94.20
48551;DHT22;34397;51.176;6.738;2024-02-04T13:04:35;9.80;94.20
48551;DHT22;34397;51.176;6.738;2024-02-04T13:07:08;9.80;94.30
48551;DHT22;34397;51.176;6.738;2024-02-04T13:09:43;9.80;94.30
48551;DHT22;34397;51.176;6.738;2024-02-04T13:12:15;9.80;94.20
48551;DHT22;34397;51.176;6.738;2024-02-04T13:14:47;9.80;94.20
48551;DHT22;34397;51.176;6.738;2024-02-04T13:17:19;9.80;94.10
48551;DHT22;34397;51.176;6.738;2024-02-04T13:19:51;9.80;94.00
48551;DHT22;34397;51.176;6.738;2024-02-04T13:22:23;9.70;94.00
48551;DHT22;34397;51.176;6.738;2024-02-04T13:24:56;9.70;94.10
48551;DHT22;34397;51.176;6.738;2024-02-04T13:27:29;9.70;94.00
48551;DHT22;34397;51.176;6.738;2024-02-04T13:30:01;9.80;94.10
48551;DHT22;34397;51.176;6.738;2024-02-04T13:32:34;9.70;93.90
48551;DHT22;34397;51.176;6.738;2024-02-04T13:35:08;9.80;94.00
48551;DHT22;34397;51.176;6.738;2024-02-04T13:37:41;9.80;93.80
48551;DHT22;34397;51.176;6.738;2024-02-04T13:40:19;9.80;93.40
48551;DHT22;34397;51.176;6.738;2024-02-04T13:42:51;9.80;93.50
48551;DHT22;34397;51.176;6.738;2024-02-04T13:45:23;9.80;93.50
48551;DHT22;34397;51.176;6.738;2024-02-04T13:47:55;9.80;93.50
48551;DHT22;34397;51.176;6.738;2024-02-04T13:50:27;9.80;93.10
48551;DHT22;34397;51.176;6.738;2024-02-04T13:52:59;9.80;93.30
48551;DHT22;34397;51.176;6.738;2024-02-04T13:55:32;9.80;93.10
48551;DHT22;34397;51.176;6.738;2024-02-04T13:58:04;9.80;93.30
48551;DHT22;34397;51.176;6.738;2024-02-04T14:00:36;9.80;93.20
48551;DHT22;34397;51.176;6.738;2024-02-04T14:03:08;9.80;93.30
48551;DHT22;34397;51.176;6.738;2024-02-04T14:05:40;9.80;93.10
48551;DHT22;34397;51.176;6.738;2024-02-04T14:08:12;9.80;93.20
48551;DHT22;34397;51.176;6.738;2024-02-04T14:10:46;9.80;93.10
48551;DHT22;34397;51.176;6.738;2024-02-04T14:13:18;9.90;93.00
48551;DHT22;34397;51.176;6.738;2024-02-04T14:15:50;9.80;93.00
48551;DHT22;34397;51.176;6.738;2024-02-04T14:18:23;9.80;92.90
48551;DHT22;34397;51.176;6.738;2024-02-04T14:20:55;9.80;93.00
48551;DHT22;34397;51.176;6.738;2024-02-04T14:23:27;9.80;93.10
48551;DHT22;34397;51.176;6.738;2024-02-04T14:26:00;9.80;93.10
48551;DHT22;34397;51.176;6.738;2024-02-04T14:28:33;9.80;93.30
48551;DHT22;34397;51.176;6.738;2024-02-04T14:31:11;9.80;93.30
48551;DHT22;34397;51.176;6.738;2024-02-04T14:33:43;9.80;93.10
48551;DHT22;34397;51.176;6.738;2024-02-04T14:36:17;9.80;93.00
48551;DHT22;34397;51.176;6.738;2024-02-04T14:38:50;9.70;93.10
48551;DHT22;34397;51.176;6.738;2024-02-04T14:41:23;9.70;93.00
48551;DHT22;34397;51.176;6.738;2024-02-04T14:43:56;9.60;93.00
48551;DHT22;34397;51.176;6.738;2024-02-04T14:46:27;9.70;93.50
48551;DHT22;34397;51.176;6.738;2024-02-04T14:48:59;9.70;93.10
48551;DHT22;34397;51.176;6.738;2024-02-04T14:51:31;9.70;93.10
48551;DHT22;34397;51.176;6.738;2024-02-04T14:54:03;9.80;93.00
48551;DHT22;34397;51.176;6.738;2024-02-04T14:56:40;9.80;92.80
48551;DHT22;34397;51.176;6.738;2024-02-04T14:59:13;9.80;92.80
48551;DHT22;34397;51.176;6.738;2024-02-04T15:01:45;9.80;92.80
48551;DHT22;34397;51.176;6.738;2024-02-04T15:04:17;9.80;92.60
48551;DHT22;34397;51.176;6.738;2024-02-04T15:06:49;9.80;92.70
48551;DHT22;34397;51.176;6.738;2024-02-04T15:09:21;9.80;92.60
48551;DHT22;34397;51.176;6.738;2024-02-04T15:11:55;9.80;92.60
48551;DHT22;34397;51.176;6.738;2024-02-04T15:14:28;9.80;92.50
48551;DHT22;34397;51.176;6.738;2024-02-04T15:17:00;9.80;92.60
48551;DHT22;34397;51.176;6.738;2024-02-04T15:19:32;9.80;92.40
48551;DHT22;34397;51.176;6.738;2024-02-04T15:22:07;9.80;92.50
48551;DHT22;34397;51.176;6.738;2024-02-04T15:24:39;9.90;92.40
48551;DHT22;34397;51.176;6.738;2024-02-04T15:27:12;9.80;92.30
48551;DHT22;34397;51.176;6.738;2024-02-04T15:29:47;9.80;92.40
48551;DHT22;34397;51.176;6.738;2024-02-04T15:32:20;9.90;92.30
48551;DHT22;34397;51.176;6.738;2024-02-04T15:34:53;9.90;92.40
48551;DHT22;34397;51.176;6.738;2024-02-04T15:37:25;9.80;92.20
48551;DHT22;34397;51.176;6.738;2024-02-04T15:39:57;9.80;92.20
48551;DHT22;34397;51.176;6.738;2024-02-04T15:42:30;9.80;92.40
48551;DHT22;34397;51.176;6.738;2024-02-04T15:45:03;9.80;92.30
48551;DHT22;34397;51.176;6.738;2024-02-04T15:47:37;9.80;92.60
48551;DHT22;34397;51.176;6.738;2024-02-04T15:50:15;9.90;92.30
48551;DHT22;34397;51.176;6.738;2024-02-04T15:52:48;9.90;92.30
48551;DHT22;34397;51.176;6.738;2024-02-04T15:55:22;9.90;92.30
48551;DHT22;34397;51.176;6.738;2024-02-04T15:57:59;9.90;92.30
48551;DHT22;34397;51.176;6.738;2024-02-04T16:00:33;9.90;92.20
48551;DHT22;34397;51.176;6.738;2024-02-04T16:03:06;9.90;92.30
48551;DHT22;34397;51.176;6.738;2024-02-04T16:05:40;9.90;92.00
48551;DHT22;34397;51.176;6.738;2024-02-04T16:08:13;9.80;92.30
48551;DHT22;34397;51.176;6.738;2024-02-04T16:10:45;9.80;92.40
48551;DHT22;34397;51.176;6.738;2024-02-04T16:13:20;9.80;92.50
48551;DHT22;34397;51.176;6.738;2024-02-04T16:15:57;9.80;92.40
48551;DHT22;34397;51.176;6.738;2024-02-04T16:18:34;9.80;92.50
48551;DHT22;34397;51.176;6.738;2024-02-04T16:21:06;9.70;92.60